createdAt,value
2017-09-13T00:02:26.970Z,55.35
2017-09-13T00:04:54.484Z,55.33
2017-09-13T00:07:22.205Z,55.33
2017-09-13T00:09:49.693Z,55.29
2017-09-13T00:12:17.359Z,55.30
2017-09-13T00:14:44.864Z,55.28
2017-09-13T00:17:12.370Z,55.26
2017-09-13T00:19:39.883Z,55.25
2017-09-13T00:22:07.443Z,55.26
2017-09-13T00:24:34.932Z,55.24
2017-09-13T00:27:02.480Z,55.23
2017-09-13T00:29:29.973Z,55.20
2017-09-13T00:31:57.478Z,55.19
2017-09-13T00:34:25.014Z,55.18
2017-09-13T00:36:52.559Z,55.16
2017-09-13T00:39:20.044Z,55.15
2017-09-13T00:41:47.551Z,55.15
2017-09-13T00:44:15.070Z,55.18
2017-09-13T00:46:42.555Z,55.14
2017-09-13T00:49:10.077Z,55.10
2017-09-13T00:51:37.553Z,55.10
2017-09-13T00:54:05.313Z,55.08
2017-09-13T00:56:32.817Z,55.10
2017-09-13T00:59:00.369Z,55.08
2017-09-13T01:01:27.852Z,55.04
2017-09-13T01:03:55.553Z,55.01
2017-09-13T01:06:23.047Z,55.01
2017-09-13T01:08:50.558Z,55.00
2017-09-13T01:11:18.083Z,55.01
2017-09-13T01:13:45.574Z,54.99
2017-09-13T01:16:13.166Z,55.01
2017-09-13T01:18:40.732Z,54.94
2017-09-13T01:21:08.288Z,54.97
2017-09-13T01:23:35.774Z,54.98
2017-09-13T01:26:03.308Z,54.94
2017-09-13T01:28:30.803Z,55.00
2017-09-13T01:30:58.341Z,54.92
2017-09-13T01:33:25.837Z,54.92
2017-09-13T01:35:53.327Z,54.97
2017-09-13T01:38:20.913Z,54.88
2017-09-13T01:40:48.556Z,54.88
2017-09-13T01:43:16.136Z,54.90
2017-09-13T01:45:43.652Z,54.85
2017-09-13T01:48:11.353Z,54.87
2017-09-13T01:50:38.847Z,54.87
2017-09-13T01:53:06.354Z,54.87
2017-09-13T01:55:33.853Z,54.86
2017-09-13T01:58:01.349Z,54.88
2017-09-13T02:00:28.830Z,54.85
2017-09-13T02:02:56.371Z,54.83
2017-09-13T02:05:23.913Z,54.81
2017-09-13T02:07:51.386Z,54.84
2017-09-13T02:10:18.903Z,54.78
2017-09-13T02:12:46.412Z,54.74
2017-09-13T02:15:13.904Z,54.76
2017-09-13T02:17:41.414Z,54.74
2017-09-13T02:20:08.920Z,54.72
2017-09-13T02:22:36.398Z,54.71
2017-09-13T02:25:03.948Z,54.72
2017-09-13T02:27:31.448Z,54.69
2017-09-13T02:29:58.937Z,54.67
2017-09-13T02:32:26.460Z,54.71
2017-09-13T02:34:53.939Z,54.70
2017-09-13T02:37:21.449Z,54.66
2017-09-13T02:39:48.974Z,54.69
2017-09-13T02:42:16.554Z,54.62
2017-09-13T02:44:44.071Z,54.62
2017-09-13T02:47:11.575Z,54.60
2017-09-13T02:49:39.067Z,54.59
2017-09-13T02:52:06.542Z,54.61
2017-09-13T02:54:34.117Z,54.54
2017-09-13T02:57:01.611Z,54.54
2017-09-13T02:59:29.112Z,54.49
2017-09-13T03:01:56.750Z,54.50
2017-09-13T03:04:24.282Z,54.51
2017-09-13T03:06:51.861Z,54.46
2017-09-13T03:09:19.402Z,54.47
2017-09-13T03:11:46.926Z,54.48
2017-09-13T03:14:14.456Z,54.47
2017-09-13T03:16:41.968Z,54.40
2017-09-13T03:19:09.547Z,54.40
2017-09-13T03:21:37.044Z,54.38
2017-09-13T03:24:04.557Z,54.37
2017-09-13T03:26:32.060Z,54.37
2017-09-13T03:28:59.727Z,54.38
2017-09-13T03:31:27.238Z,54.36
2017-09-13T03:33:54.728Z,54.38
2017-09-13T03:36:22.254Z,54.34
2017-09-13T03:38:49.826Z,54.37
2017-09-13T03:41:17.352Z,54.35
2017-09-13T03:43:44.922Z,54.29
2017-09-13T03:46:12.431Z,54.30
2017-09-13T03:48:39.913Z,54.30
2017-09-13T03:51:07.411Z,54.28
2017-09-13T03:53:34.916Z,54.29
2017-09-13T03:56:02.403Z,54.19
2017-09-13T03:58:29.942Z,54.20
2017-09-13T04:00:57.475Z,54.20
2017-09-13T04:03:24.962Z,54.10
2017-09-13T04:05:52.451Z,54.05
2017-09-13T04:08:20.097Z,54.08
2017-09-13T04:10:47.640Z,54.05
2017-09-13T04:13:15.753Z,53.97
2017-09-13T04:15:43.278Z,53.94
2017-09-13T04:18:10.774Z,53.88
2017-09-13T04:20:38.304Z,53.94
2017-09-13T04:23:05.840Z,53.86
2017-09-13T04:25:33.328Z,53.83
2017-09-13T04:28:00.840Z,53.85
2017-09-13T04:30:28.541Z,53.79
2017-09-13T04:32:56.033Z,54.00
2017-09-13T04:35:23.523Z,54.00
2017-09-13T04:37:51.045Z,53.93
2017-09-13T04:40:18.545Z,53.93
2017-09-13T04:42:46.043Z,53.98
2017-09-13T04:45:13.544Z,54.07
2017-09-13T04:47:41.063Z,54.07
2017-09-13T04:50:08.585Z,53.98
2017-09-13T04:52:36.101Z,54.06
2017-09-13T04:55:03.598Z,53.99
2017-09-13T04:57:31.113Z,54.18
2017-09-13T04:59:58.650Z,54.01
2017-09-13T05:02:26.139Z,54.22
2017-09-13T05:04:53.636Z,54.25
2017-09-13T05:07:21.156Z,54.07
2017-09-13T05:09:48.662Z,54.13
2017-09-13T05:12:16.146Z,54.15
2017-09-13T05:14:43.656Z,54.07
2017-09-13T05:17:11.176Z,53.93
2017-09-13T05:19:38.676Z,53.53
2017-09-13T05:22:06.221Z,53.77
2017-09-13T05:24:33.713Z,53.94
2017-09-13T05:27:01.277Z,54.07
2017-09-13T05:29:28.828Z,54.05
2017-09-13T05:31:56.309Z,54.23
2017-09-13T05:34:23.793Z,54.23
2017-09-13T05:36:51.493Z,54.22
2017-09-13T05:39:19.053Z,54.22
2017-09-13T05:41:46.559Z,54.29
2017-09-13T05:44:14.074Z,54.22
2017-09-13T05:46:41.622Z,54.28
2017-09-13T05:49:09.123Z,54.20
2017-09-13T05:51:36.635Z,54.22
2017-09-13T05:54:04.143Z,54.23
2017-09-13T05:56:31.670Z,54.21
2017-09-13T05:58:59.208Z,54.33
2017-09-13T06:01:26.705Z,54.48
2017-09-13T06:03:54.238Z,54.46
2017-09-13T06:06:21.830Z,54.43
2017-09-13T06:08:49.320Z,54.38
2017-09-13T06:11:16.811Z,54.43
2017-09-13T06:13:44.364Z,54.51
2017-09-13T06:16:11.858Z,54.44
2017-09-13T06:18:39.342Z,54.53
2017-09-13T06:21:06.866Z,54.58
2017-09-13T06:23:34.350Z,54.66
2017-09-13T06:26:01.829Z,54.68
2017-09-13T06:28:29.343Z,54.69
2017-09-13T06:30:56.837Z,54.69
2017-09-13T06:33:24.331Z,54.70
2017-09-13T06:35:52.001Z,54.69
2017-09-13T06:38:19.487Z,54.74
2017-09-13T06:40:46.969Z,54.74
2017-09-13T06:43:14.503Z,54.74
2017-09-13T06:45:42.019Z,54.75
2017-09-13T06:48:09.537Z,54.71
2017-09-13T06:50:37.091Z,54.72
2017-09-13T06:53:04.585Z,54.65
2017-09-13T06:55:32.090Z,54.65
2017-09-13T06:57:59.610Z,54.59
2017-09-13T07:00:27.104Z,54.58
2017-09-13T07:02:54.600Z,54.52
2017-09-13T07:05:22.130Z,54.48
2017-09-13T07:07:49.644Z,54.43
2017-09-13T07:10:17.136Z,54.36
2017-09-13T07:12:44.661Z,54.32
2017-09-13T07:15:12.189Z,54.38
2017-09-13T07:17:39.686Z,54.29
2017-09-13T07:20:07.223Z,54.32
2017-09-13T07:22:34.723Z,54.25
2017-09-13T07:25:02.236Z,54.18
2017-09-13T07:27:29.747Z,54.17
2017-09-13T07:29:57.241Z,54.09
2017-09-13T07:32:24.727Z,54.13
2017-09-13T07:34:52.456Z,54.05
2017-09-13T07:37:19.953Z,54.04
2017-09-13T07:39:47.531Z,54.02
2017-09-13T07:42:15.062Z,53.92
2017-09-13T07:44:42.568Z,54.02
2017-09-13T07:47:10.082Z,53.96
2017-09-13T07:49:37.857Z,53.97
2017-09-13T07:52:05.391Z,53.89
2017-09-13T07:54:32.898Z,53.93
2017-09-13T07:57:00.418Z,53.82
2017-09-13T07:59:28.080Z,53.77
2017-09-13T08:01:55.577Z,53.69
2017-09-13T08:04:23.080Z,53.60
2017-09-13T08:06:50.584Z,53.71
2017-09-13T08:09:18.158Z,53.57
2017-09-13T08:11:45.682Z,53.67
2017-09-13T08:14:13.169Z,53.58
2017-09-13T08:16:40.687Z,53.55
2017-09-13T08:19:08.229Z,53.44
2017-09-13T08:21:35.736Z,53.37
2017-09-13T08:24:03.231Z,53.35
2017-09-13T08:26:30.925Z,53.43
2017-09-13T08:28:58.419Z,53.39
2017-09-13T08:31:25.926Z,53.42
2017-09-13T08:33:53.477Z,53.28
2017-09-13T08:36:21.057Z,53.21
2017-09-13T08:38:48.547Z,53.22
2017-09-13T08:41:16.086Z,53.14
2017-09-13T08:43:43.580Z,53.24
2017-09-13T08:46:11.088Z,53.09
2017-09-13T08:48:38.628Z,53.22
2017-09-13T08:51:06.260Z,53.11
2017-09-13T08:53:33.758Z,53.11
2017-09-13T08:56:01.352Z,53.10
2017-09-13T08:58:28.846Z,53.20
2017-09-13T09:00:56.345Z,52.84
2017-09-13T09:03:23.939Z,52.93
2017-09-13T09:05:51.433Z,53.00
2017-09-13T09:08:19.026Z,52.57
2017-09-13T09:10:46.665Z,52.82
2017-09-13T09:13:14.170Z,53.03
2017-09-13T09:15:41.672Z,53.22
2017-09-13T09:18:10.023Z,53.51
2017-09-13T09:20:41.029Z,53.82
2017-09-13T09:23:08.516Z,54.04
2017-09-13T09:25:36.053Z,54.29
2017-09-13T09:28:03.548Z,54.58
2017-09-13T09:30:31.049Z,54.78
2017-09-13T09:32:58.571Z,55.04
2017-09-13T09:35:26.226Z,54.82
2017-09-13T09:37:53.802Z,55.31
2017-09-13T09:40:21.692Z,55.36
2017-09-13T09:42:49.180Z,55.35
2017-09-13T09:45:16.683Z,55.65
2017-09-13T09:47:44.218Z,55.56
2017-09-13T09:50:11.821Z,55.36
2017-09-13T09:52:39.305Z,55.14
2017-09-13T09:55:06.845Z,55.29
2017-09-13T09:57:34.346Z,55.01
2017-09-13T10:00:01.917Z,54.65
2017-09-13T10:02:29.413Z,55.09
2017-09-13T10:04:56.915Z,55.30
2017-09-13T10:07:24.409Z,55.28
2017-09-13T10:09:51.935Z,55.30
2017-09-13T10:12:19.417Z,55.28
2017-09-13T10:14:46.911Z,55.11
2017-09-13T10:17:15.162Z,54.97
2017-09-13T10:19:43.339Z,54.48
2017-09-13T10:22:10.956Z,54.18
2017-09-13T10:24:38.490Z,54.51
2017-09-13T10:29:32.806Z,54.34
2017-09-13T10:32:00.410Z,54.23
2017-09-13T10:34:27.902Z,54.11
2017-09-13T10:36:55.402Z,54.00
2017-09-13T10:39:22.992Z,54.00
2017-09-13T10:41:50.492Z,53.94
2017-09-13T10:44:18.160Z,53.94
2017-09-13T10:46:45.877Z,53.80
2017-09-13T10:49:13.377Z,53.74
2017-09-13T10:51:40.952Z,53.81
2017-09-13T10:54:08.638Z,53.82
2017-09-13T10:56:36.234Z,53.70
2017-09-13T10:59:04.012Z,53.60
2017-09-13T11:01:31.601Z,53.78
2017-09-13T11:03:59.094Z,53.66
2017-09-13T11:06:26.697Z,53.85
2017-09-13T11:08:54.249Z,53.71
2017-09-13T11:11:21.742Z,53.60
2017-09-13T11:13:49.230Z,53.74
2017-09-13T11:16:16.761Z,53.75
2017-09-13T11:18:44.262Z,53.80
2017-09-13T11:21:11.755Z,53.85
2017-09-13T11:23:39.299Z,53.80
2017-09-13T11:26:07.619Z,53.92
2017-09-13T11:28:35.160Z,53.83
2017-09-13T11:31:02.678Z,53.69
2017-09-13T11:33:30.180Z,53.82
2017-09-13T11:35:57.711Z,53.84
2017-09-13T11:38:25.375Z,53.74
2017-09-13T11:40:52.908Z,53.67
2017-09-13T11:43:20.422Z,53.67
2017-09-13T11:45:47.944Z,53.66
2017-09-13T11:48:15.450Z,53.74
2017-09-13T11:50:43.024Z,53.66
2017-09-13T11:53:10.579Z,53.64
2017-09-13T11:55:38.179Z,53.68
2017-09-13T11:58:07.412Z,53.68
2017-09-13T12:00:34.946Z,53.72
2017-09-13T12:03:02.486Z,53.65
2017-09-13T12:05:30.673Z,53.60
2017-09-13T12:07:58.209Z,53.56
2017-09-13T12:10:25.723Z,53.48
2017-09-13T12:12:53.243Z,53.54
2017-09-13T12:15:20.792Z,53.53
2017-09-13T12:17:48.281Z,53.49
2017-09-13T12:20:15.768Z,53.48
2017-09-13T12:22:43.280Z,53.57
2017-09-13T12:25:10.778Z,53.44
2017-09-13T12:27:38.291Z,53.54
2017-09-13T12:30:05.844Z,53.56
2017-09-13T12:32:33.335Z,53.38
2017-09-13T12:35:00.821Z,53.53
2017-09-13T12:37:28.378Z,53.57
2017-09-13T12:39:55.901Z,53.56
2017-09-13T12:42:23.400Z,53.54
2017-09-13T12:44:50.964Z,53.39
2017-09-13T12:47:18.523Z,53.49
2017-09-13T12:49:46.031Z,53.49
2017-09-13T12:52:13.599Z,53.50
2017-09-13T12:54:41.090Z,53.62
2017-09-13T12:57:08.587Z,53.60
2017-09-13T12:59:36.095Z,53.63
2017-09-13T13:02:03.592Z,53.54
2017-09-13T13:04:31.112Z,53.65
2017-09-13T13:06:58.633Z,53.72
2017-09-13T13:09:26.138Z,53.60
2017-09-13T13:11:53.755Z,53.61
2017-09-13T13:14:21.275Z,53.69
2017-09-13T13:16:48.785Z,53.55
2017-09-13T13:19:16.275Z,53.61
2017-09-13T13:21:43.717Z,53.65
2017-09-13T13:24:11.166Z,53.62
2017-09-13T13:26:38.589Z,53.61
2017-09-13T13:29:06.190Z,53.50
2017-09-13T13:31:33.627Z,53.71
2017-09-13T13:34:01.050Z,53.51
2017-09-13T13:36:28.511Z,53.60
2017-09-13T13:38:56.176Z,53.55
2017-09-13T13:41:23.605Z,53.54
2017-09-13T13:43:51.060Z,53.61
2017-09-13T13:46:18.464Z,53.52
2017-09-13T13:48:45.891Z,53.46
2017-09-13T13:51:13.347Z,53.55
2017-09-13T13:53:40.796Z,53.61
2017-09-13T13:56:08.234Z,53.60
2017-09-13T13:58:35.679Z,53.77
2017-09-13T14:01:03.123Z,53.73
2017-09-13T14:03:30.545Z,53.81
2017-09-13T14:05:57.989Z,53.86
2017-09-13T14:08:25.409Z,53.93
2017-09-13T14:10:52.866Z,53.87
2017-09-13T14:13:20.324Z,53.93
2017-09-13T14:15:47.778Z,53.72
2017-09-13T14:18:15.256Z,53.73
2017-09-13T14:20:42.730Z,53.81
2017-09-13T14:23:10.188Z,53.90
2017-09-13T14:25:37.612Z,54.09
2017-09-13T14:28:05.135Z,54.24
2017-09-13T14:30:32.564Z,54.49
2017-09-13T14:33:00.076Z,54.26
2017-09-13T14:35:27.524Z,54.18
2017-09-13T14:37:54.951Z,54.22
2017-09-13T14:40:22.368Z,54.29
2017-09-13T14:42:49.865Z,54.29
2017-09-13T14:45:17.276Z,54.35
2017-09-13T14:47:44.709Z,54.54
2017-09-13T14:50:12.129Z,54.41
2017-09-13T14:52:39.556Z,54.48
2017-09-13T14:55:06.987Z,54.22
2017-09-13T14:57:34.427Z,54.19
2017-09-13T15:00:01.830Z,54.40
2017-09-13T15:02:29.257Z,54.39
2017-09-13T15:04:56.734Z,54.33
2017-09-13T15:07:24.146Z,54.48
2017-09-13T15:09:51.593Z,54.42
2017-09-13T15:12:19.072Z,54.32
2017-09-13T15:14:46.496Z,54.35
2017-09-13T15:17:13.912Z,54.22
2017-09-13T15:19:44.513Z,54.44
2017-09-13T15:22:11.928Z,54.25
2017-09-13T15:24:39.342Z,54.35
2017-09-13T15:27:06.876Z,54.41
2017-09-13T15:29:34.291Z,54.35
2017-09-13T15:32:01.717Z,54.56
2017-09-13T15:34:29.164Z,54.69
2017-09-13T15:36:56.601Z,54.79
2017-09-13T15:39:24.057Z,54.73
2017-09-13T15:41:51.508Z,54.93
2017-09-13T15:44:18.920Z,54.95
2017-09-13T15:46:46.345Z,55.21
2017-09-13T15:49:13.799Z,55.09
2017-09-13T15:51:41.218Z,54.93
2017-09-13T15:54:08.631Z,55.03
2017-09-13T15:56:36.089Z,55.48
2017-09-13T15:59:03.508Z,55.30
2017-09-13T16:01:30.940Z,55.33
2017-09-13T16:03:58.380Z,55.43
2017-09-13T16:06:26.270Z,55.50
2017-09-13T16:08:53.746Z,55.46
2017-09-13T16:11:21.193Z,57.65
2017-09-13T16:13:48.632Z,57.90
2017-09-13T16:16:16.038Z,58.66
2017-09-13T16:18:43.478Z,58.65
2017-09-13T16:21:10.906Z,57.95
2017-09-13T16:23:38.320Z,58.06
2017-09-13T16:26:05.751Z,57.99
2017-09-13T16:28:33.181Z,57.79
2017-09-13T16:31:00.591Z,57.85
2017-09-13T16:33:28.022Z,57.36
2017-09-13T16:35:55.439Z,57.19
2017-09-13T16:38:22.913Z,57.36
2017-09-13T16:40:50.438Z,57.32
2017-09-13T16:43:17.953Z,57.20
2017-09-13T16:45:45.509Z,57.28
2017-09-13T16:48:12.968Z,57.14
2017-09-13T16:50:40.387Z,57.10
2017-09-13T16:53:07.819Z,57.13
2017-09-13T16:55:35.268Z,56.96
2017-09-13T16:58:02.696Z,57.04
2017-09-13T17:00:30.121Z,56.89
2017-09-13T17:02:57.586Z,56.85
2017-09-13T17:05:25.088Z,56.73
2017-09-13T17:07:52.535Z,56.94
2017-09-13T17:10:19.995Z,57.19
2017-09-13T17:12:47.408Z,56.84
2017-09-13T17:15:14.832Z,56.90
2017-09-13T17:17:42.295Z,57.36
2017-09-13T17:20:09.716Z,57.36
2017-09-13T17:22:37.127Z,57.36
2017-09-13T17:25:05.133Z,57.41
2017-09-13T17:27:32.584Z,57.43
2017-09-13T17:30:00.044Z,57.49
2017-09-13T17:32:27.472Z,57.43
2017-09-13T17:34:54.890Z,57.36
2017-09-13T17:37:22.302Z,57.22
2017-09-13T17:39:49.755Z,57.32
2017-09-13T17:42:17.167Z,57.41
2017-09-13T17:44:44.584Z,57.25
2017-09-13T17:47:12.082Z,57.28
2017-09-13T17:49:39.499Z,57.40
2017-09-13T17:52:06.905Z,57.29
2017-09-13T17:54:34.342Z,57.37
2017-09-13T17:57:01.798Z,57.37
2017-09-13T17:59:29.220Z,57.30
2017-09-13T18:01:56.671Z,57.36
2017-09-13T18:04:24.084Z,57.38
2017-09-13T18:06:51.502Z,57.35
2017-09-13T18:09:18.954Z,57.37
2017-09-13T18:11:46.375Z,57.52
2017-09-13T18:14:13.774Z,57.27
2017-09-13T18:16:41.283Z,57.36
2017-09-13T18:19:08.709Z,57.32
2017-09-13T18:21:36.130Z,57.29
2017-09-13T18:24:03.579Z,57.28
2017-09-13T18:26:30.987Z,57.35
2017-09-13T18:28:58.408Z,57.38
2017-09-13T18:31:25.899Z,57.26
2017-09-13T18:33:53.334Z,57.29
2017-09-13T18:36:20.744Z,57.23
2017-09-13T18:38:48.177Z,57.33
2017-09-13T18:41:15.598Z,57.38
2017-09-13T18:43:43.007Z,57.27
2017-09-13T18:46:10.458Z,57.38
2017-09-13T18:48:38.029Z,57.31
2017-09-13T18:51:05.574Z,57.43
2017-09-13T18:53:33.201Z,57.49
2017-09-13T18:56:00.620Z,57.47
2017-09-13T18:58:28.045Z,57.18
2017-09-13T19:00:55.551Z,57.39
2017-09-13T19:03:23.003Z,57.40
2017-09-13T19:05:50.432Z,57.32
2017-09-13T19:08:17.909Z,57.35
2017-09-13T19:10:45.320Z,57.24
2017-09-13T19:13:12.743Z,57.30
2017-09-13T19:15:40.242Z,57.34
2017-09-13T19:18:07.671Z,57.28
2017-09-13T19:20:35.073Z,57.28
2017-09-13T19:23:02.524Z,57.33
2017-09-13T19:25:29.960Z,57.17
2017-09-13T19:27:57.373Z,57.23
2017-09-13T19:30:24.828Z,57.32
2017-09-13T19:32:52.245Z,57.28
2017-09-13T19:35:19.646Z,57.24
2017-09-13T19:37:47.109Z,57.29
2017-09-13T19:40:14.570Z,57.26
2017-09-13T19:42:41.985Z,57.33
2017-09-13T19:45:09.409Z,57.14
2017-09-13T19:47:36.861Z,57.28
2017-09-13T19:50:04.297Z,57.33
2017-09-13T19:52:31.795Z,57.36
2017-09-13T19:54:59.211Z,57.24
2017-09-13T19:57:26.623Z,57.36
2017-09-13T19:59:54.061Z,57.18
2017-09-13T20:02:21.484Z,57.25
2017-09-13T20:04:48.897Z,57.18
2017-09-13T20:07:16.377Z,57.22
2017-09-13T20:09:43.798Z,57.17
2017-09-13T20:12:11.210Z,57.18
2017-09-13T20:14:38.662Z,57.21
2017-09-13T20:17:06.095Z,57.17
2017-09-13T20:19:33.513Z,57.21
2017-09-13T20:22:00.961Z,57.44
2017-09-13T20:24:28.368Z,57.26
2017-09-13T20:26:55.778Z,57.33
2017-09-13T20:29:23.207Z,57.20
2017-09-13T20:31:50.632Z,57.16
2017-09-13T20:34:18.038Z,57.12
2017-09-13T20:36:45.501Z,57.03
2017-09-13T20:39:12.920Z,57.06
2017-09-13T20:41:40.334Z,56.87
2017-09-13T20:44:07.792Z,56.99
2017-09-13T20:46:35.212Z,56.79
2017-09-13T20:49:02.627Z,56.81
2017-09-13T20:51:30.128Z,56.89
2017-09-13T20:53:57.540Z,56.67
2017-09-13T20:56:24.956Z,56.69
2017-09-13T20:58:52.420Z,56.86
2017-09-13T21:01:19.841Z,56.76
2017-09-13T21:03:47.256Z,56.85
2017-09-13T21:06:15.709Z,56.78
2017-09-13T21:08:43.127Z,56.64
2017-09-13T21:11:10.549Z,56.66
2017-09-13T21:13:37.997Z,56.80
2017-09-13T21:16:05.501Z,56.77
2017-09-13T21:18:32.953Z,56.69
2017-09-13T21:21:00.528Z,56.67
2017-09-13T21:23:28.933Z,56.80
2017-09-13T21:25:56.367Z,56.79
2017-09-13T21:28:23.822Z,56.92
2017-09-13T21:30:51.315Z,56.80
2017-09-13T21:33:18.750Z,56.82
2017-09-13T21:35:46.198Z,56.78
2017-09-13T21:38:13.616Z,56.76
2017-09-13T21:40:41.020Z,56.80
2017-09-13T21:43:08.473Z,56.83
2017-09-13T21:45:35.889Z,56.82
2017-09-13T21:48:03.310Z,56.83
2017-09-13T21:50:30.757Z,56.74
2017-09-13T21:52:58.174Z,56.86
2017-09-13T21:55:25.591Z,56.89
2017-09-13T21:57:53.040Z,56.89
2017-09-13T22:00:20.491Z,56.92
2017-09-13T22:02:47.959Z,56.89
2017-09-13T22:05:15.400Z,56.96
2017-09-13T22:07:42.812Z,56.93
2017-09-13T22:10:10.226Z,56.99
2017-09-13T22:12:37.680Z,56.89
2017-09-13T22:15:05.188Z,56.93
2017-09-13T22:17:32.678Z,56.92
2017-09-13T22:20:00.097Z,56.85
2017-09-13T22:22:27.517Z,56.82
2017-09-13T22:24:54.941Z,56.89
2017-09-13T22:27:22.367Z,56.94
2017-09-13T22:29:49.785Z,56.92
2017-09-13T22:32:17.200Z,56.94
2017-09-13T22:34:44.690Z,56.98
2017-09-13T22:37:12.098Z,56.84
2017-09-13T22:39:39.521Z,56.92
2017-09-13T22:42:06.980Z,56.96
2017-09-13T22:44:34.532Z,56.95
2017-09-13T22:47:01.950Z,56.99
2017-09-13T22:49:29.416Z,57.02
2017-09-13T22:51:56.864Z,57.00
2017-09-13T22:54:24.275Z,57.01
2017-09-13T22:56:51.852Z,57.01
2017-09-13T22:59:19.255Z,57.01
2017-09-13T23:01:46.662Z,57.05
2017-09-13T23:04:14.119Z,56.88
2017-09-13T23:06:41.523Z,56.93
2017-09-13T23:09:08.960Z,56.85
2017-09-13T23:11:36.399Z,56.95
2017-09-13T23:14:03.833Z,56.87
2017-09-13T23:16:31.249Z,57.03
2017-09-13T23:18:58.711Z,57.02
2017-09-13T23:21:26.123Z,57.04
2017-09-13T23:23:53.631Z,57.07
2017-09-13T23:26:21.070Z,57.04
2017-09-13T23:28:48.474Z,57.04
2017-09-13T23:31:15.907Z,56.88
2017-09-13T23:33:43.347Z,57.07
2017-09-13T23:36:10.766Z,57.11
2017-09-13T23:38:38.239Z,57.10
2017-09-13T23:41:05.676Z,57.12
2017-09-13T23:43:33.103Z,57.06
2017-09-13T23:46:00.523Z,57.09
2017-09-13T23:48:27.976Z,57.07
2017-09-13T23:50:55.382Z,57.13
2017-09-13T23:53:22.843Z,56.98
2017-09-13T23:55:50.288Z,57.07
2017-09-13T23:58:17.778Z,57.04
